Heinz Schepers — V2OM7 — position and weather

sailwx.info

Track history (hours):
 
Tides and Currents Weather Stations Pressure Air Temp Water Temp Dewpoint Dewpoint Depression Visibility Wind Speed Wind Dir Waves Ship Positions

Heinz Schepers

Last reported at 2015-Feb-25 00:06 UTC. Time now 2015-Feb-27 11:45 UTC.
Position N 34°40' E 032°22'.

Length 101 m; draft 5.2 m.

Type: Cargo ship. MMSI: 304596000.

Date/timePositionNaut miles runAvg speedWind from/ knotsBaromVisibWave heightAir tempDewpointWater temp
2015-Feb-25 00:06N 34°40' E 032°22'814.6
2015-Feb-24 23:33N 34°37' E 032°31'1414.0
2015-Feb-24 22:33N 34°34' E 032°48'1313.1
2015-Feb-24 21:33N 34°33' E 033°03'6 6.0
2015-Feb-24 20:32N 34°39' E 033°01'0 0.0
2015-Feb-24 19:32N 34°39' E 033°01'0 0.0
2015-Feb-24 18:32N 34°39' E 033°01'0 0.0
2015-Feb-24 17:32N 34°39' E 033°01'0 0.0
2015-Feb-24 16:32N 34°39' E 033°01'0 0.0
2015-Feb-24 15:32N 34°39' E 033°01'0 0.0
2015-Feb-24 14:31N 34°39' E 033°01'0 0.0
2015-Feb-24 13:31N 34°39' E 033°01'0 0.0
2015-Feb-24 12:31N 34°39' E 033°01'0 0.0
2015-Feb-24 11:31N 34°39' E 033°01'0 0.0
2015-Feb-24 10:31N 34°39' E 033°01'0 0.0
2015-Feb-24 09:31N 34°39' E 033°01'0 0.0
2015-Feb-24 08:31N 34°39' E 033°01'0 0.0
2015-Feb-24 07:31N 34°39' E 033°01'2 2.5
2015-Feb-24 06:33N 34°38' E 033°03'9 9.0
2015-Feb-24 05:33N 34°32' E 032°55'1312.6
2015-Feb-24 04:33N 34°35' E 032°41'1212.1
2015-Feb-24 03:33N 34°38' E 032°27'  
2015-Feb-17 23:32N 34°40' E 032°23'1312.9
2015-Feb-17 22:33N 34°36' E 032°37'1413.6
2015-Feb-17 21:33N 34°32' E 032°53'10 9.9
2015-Feb-17 20:34N 34°38' E 033°03'2 2.4
2015-Feb-17 19:31N 34°39' E 033°01'0 0.0
2015-Feb-17 17:31N 34°39' E 033°01'0 0.0
2015-Feb-17 16:31N 34°39' E 033°01'0 0.0
2015-Feb-17 15:31N 34°39' E 033°01'0 0.0
2015-Feb-17 14:31N 34°39' E 033°01'0 0.0
2015-Feb-17 13:31N 34°39' E 033°01'0 0.0
2015-Feb-17 12:31N 34°39' E 033°01'0 0.0
2015-Feb-17 11:31N 34°39' E 033°01'0 0.0
2015-Feb-17 10:31N 34°39' E 033°01'0 0.0
2015-Feb-17 09:31N 34°39' E 033°01'0 0.0
2015-Feb-17 08:31N 34°39' E 033°01'0 0.0
2015-Feb-17 07:31N 34°39' E 033°01'0 0.0
2015-Feb-17 06:31N 34°39' E 033°01'0 0.0
2015-Feb-17 05:31N 34°39' E 033°01'0 0.0
2015-Feb-17 04:33N 34°39' E 033°01'3 2.5
2015-Feb-17 03:33N 34°40' E 033°04'0 0.0
2015-Feb-17 02:33N 34°40' E 033°04'0 0.1
2015-Feb-17 01:29N 34°40' E 033°04'0 0.0
2015-Feb-17 00:32N 34°40' E 033°04'0 0.0
2015-Feb-16 23:32N 34°40' E 033°04'1 0.9
2015-Feb-16 22:34N 34°39' E 033°03'10 9.9
2015-Feb-16 21:34N 34°32' E 032°56'1313.4
2015-Feb-16 20:34N 34°35' E 032°40'1313.4
2015-Feb-16 19:33N 34°39' E 032°25'  
Track history (hours):
 
Tides and Currents Weather Stations Pressure Air Temp Water Temp Dewpoint Dewpoint Depression Visibility Wind Speed Wind Dir Waves Ship Positions

Heinz Schepers

Last reported at 2015-Feb-25 00:06 UTC. Time now 2015-Feb-27 11:45 UTC.
Position N 34°40' E 032°22'.

Length 101 m; draft 5.2 m.

Type: Cargo ship. MMSI: 304596000.

Date/timePositionNaut miles runAvg speedWind from/ knotsBaromVisibWave heightAir tempDewpointWater temp
2015-Feb-25 00:06N 34°40' E 032°22'814.6
2015-Feb-24 23:33N 34°37' E 032°31'1414.0
2015-Feb-24 22:33N 34°34' E 032°48'1313.1
2015-Feb-24 21:33N 34°33' E 033°03'6 6.0
2015-Feb-24 20:32N 34°39' E 033°01'0 0.0
2015-Feb-24 19:32N 34°39' E 033°01'0 0.0
2015-Feb-24 18:32N 34°39' E 033°01'0 0.0
2015-Feb-24 17:32N 34°39' E 033°01'0 0.0
2015-Feb-24 16:32N 34°39' E 033°01'0 0.0
2015-Feb-24 15:32N 34°39' E 033°01'0 0.0
2015-Feb-24 14:31N 34°39' E 033°01'0 0.0
2015-Feb-24 13:31N 34°39' E 033°01'0 0.0
2015-Feb-24 12:31N 34°39' E 033°01'0 0.0
2015-Feb-24 11:31N 34°39' E 033°01'0 0.0
2015-Feb-24 10:31N 34°39' E 033°01'0 0.0
2015-Feb-24 09:31N 34°39' E 033°01'0 0.0
2015-Feb-24 08:31N 34°39' E 033°01'0 0.0
2015-Feb-24 07:31N 34°39' E 033°01'2 2.5
2015-Feb-24 06:33N 34°38' E 033°03'9 9.0
2015-Feb-24 05:33N 34°32' E 032°55'1312.6
2015-Feb-24 04:33N 34°35' E 032°41'1212.1
2015-Feb-24 03:33N 34°38' E 032°27'  
2015-Feb-17 23:32N 34°40' E 032°23'1312.9
2015-Feb-17 22:33N 34°36' E 032°37'1413.6
2015-Feb-17 21:33N 34°32' E 032°53'10 9.9
2015-Feb-17 20:34N 34°38' E 033°03'2 2.4
2015-Feb-17 19:31N 34°39' E 033°01'0 0.0
2015-Feb-17 17:31N 34°39' E 033°01'0 0.0
2015-Feb-17 16:31N 34°39' E 033°01'0 0.0
2015-Feb-17 15:31N 34°39' E 033°01'0 0.0
2015-Feb-17 14:31N 34°39' E 033°01'0 0.0
2015-Feb-17 13:31N 34°39' E 033°01'0 0.0
2015-Feb-17 12:31N 34°39' E 033°01'0 0.0
2015-Feb-17 11:31N 34°39' E 033°01'0 0.0
2015-Feb-17 10:31N 34°39' E 033°01'0 0.0
2015-Feb-17 09:31N 34°39' E 033°01'0 0.0
2015-Feb-17 08:31N 34°39' E 033°01'0 0.0
2015-Feb-17 07:31N 34°39' E 033°01'0 0.0
2015-Feb-17 06:31N 34°39' E 033°01'0 0.0
2015-Feb-17 05:31N 34°39' E 033°01'0 0.0
2015-Feb-17 04:33N 34°39' E 033°01'3 2.5
2015-Feb-17 03:33N 34°40' E 033°04'0 0.0
2015-Feb-17 02:33N 34°40' E 033°04'0 0.1
2015-Feb-17 01:29N 34°40' E 033°04'0 0.0
2015-Feb-17 00:32N 34°40' E 033°04'0 0.0
2015-Feb-16 23:32N 34°40' E 033°04'1 0.9
2015-Feb-16 22:34N 34°39' E 033°03'10 9.9
2015-Feb-16 21:34N 34°32' E 032°56'1313.4
2015-Feb-16 20:34N 34°35' E 032°40'1313.4
2015-Feb-16 19:33N 34°39' E 032°25'  

Dump ship's entire track history